createdAt,value
2017-09-29T00:15:51.489Z,90.26
2017-09-29T00:36:29.191Z,91.35
2017-09-29T00:57:01.887Z,91.89
2017-09-29T01:17:43.912Z,91.95
2017-09-29T01:38:19.179Z,92.12
2017-09-29T01:58:54.706Z,92.23
2017-09-29T02:37:36.312Z,92.58
2017-09-29T02:58:20.797Z,92.39
2017-09-29T03:18:56.246Z,92.04
2017-09-29T03:39:32.486Z,91.43
2017-09-29T04:00:06.705Z,91.69
2017-09-29T04:20:39.735Z,91.05
2017-09-29T04:41:18.077Z,91.11
2017-09-29T05:01:53.044Z,91.15
2017-09-29T05:22:28.654Z,91.75
2017-09-29T05:43:00.847Z,92.15
2017-09-29T06:03:33.639Z,92.66
2017-09-29T06:24:11.980Z,92.43
2017-09-29T06:44:47.551Z,91.56
2017-09-29T07:05:28.663Z,90.70
2017-09-29T07:26:06.705Z,90.03
2017-09-29T07:46:46.368Z,89.72
2017-09-29T08:07:20.318Z,89.51
2017-09-29T08:27:52.511Z,87.39
2017-09-29T08:48:27.786Z,84.58
2017-09-29T09:09:05.830Z,81.80
2017-09-29T09:29:43.247Z,79.20
2017-09-29T09:50:20.668Z,79.17
2017-09-29T10:11:18.377Z,77.33
2017-09-29T10:32:01.609Z,76.17
2017-09-29T10:52:40.598Z,74.81
2017-09-29T11:13:40.395Z,73.62
2017-09-29T11:34:13.486Z,71.87
2017-09-29T11:54:47.718Z,68.60
2017-09-29T12:15:23.195Z,68.98
2017-09-29T12:35:59.178Z,66.76
2017-09-29T12:56:38.327Z,65.64
2017-09-29T13:17:22.510Z,67.27
2017-09-29T13:37:59.011Z,64.31
2017-09-29T13:58:38.422Z,63.04
2017-09-29T14:19:27.986Z,62.75
2017-09-29T14:40:09.702Z,60.96
2017-09-29T15:21:37.518Z,57.80
2017-09-29T15:42:20.708Z,56.32
2017-09-29T16:03:05.496Z,62.42
2017-09-29T16:23:46.305Z,67.92
2017-09-29T16:44:21.577Z,72.36
2017-09-29T17:05:03.028Z,75.46
2017-09-29T17:25:42.335Z,77.86
2017-09-29T17:46:19.384Z,79.91
2017-09-29T18:06:54.779Z,81.16
2017-09-29T18:27:31.023Z,83.31
2017-09-29T18:48:03.051Z,83.37
2017-09-29T19:08:35.252Z,84.00
2017-09-29T19:50:04.824Z,85.08
2017-09-29T20:10:41.022Z,85.59
2017-09-29T20:31:23.974Z,86.81
2017-09-29T20:52:00.474Z,85.91
2017-09-29T21:12:34.823Z,86.56
2017-09-29T21:33:33.497Z,86.38
2017-09-29T21:54:12.893Z,87.67
2017-09-29T22:14:50.746Z,88.04
2017-09-29T22:35:22.968Z,88.51
2017-09-29T22:55:57.301Z,87.76
2017-09-29T23:16:35.635Z,88.91
2017-09-29T23:37:09.679Z,89.04
2017-09-29T23:57:44.953Z,89.43
